Time;durP1;ratioP1;P1;durP2;ratioP2;P2;SDS_P1;SDS_P2;PMS_P1;PMS_P2;Temp;Humidity;BMP_temperature;BMP_pressure;BME280_temperature;BME280_humidity;BME280_pressure;Samples;Min_cycle;Max_cycle;Signal;HPM_P1;HPM_P2
2021/07/03 00:00:38;;;;;;;20.83;17.27;;;;;;;14.74;76.93;100960.53;5068561;28;20226;-78
2021/07/03 00:03:04;;;;;;;25.50;18.53;;;;;;;14.74;77.38;100958.72;5070843;28;20295;-79
2021/07/03 00:05:31;;;;;;;20.63;18.00;;;;;;;14.75;77.13;100963.09;5074358;28;20229;-79
2021/07/03 00:07:57;;;;;;;21.10;17.47;;;;;;;14.76;77.41;100966.63;5063946;28;20228;-79
2021/07/03 00:10:24;;;;;;;23.43;18.17;;;;;;;14.77;77.62;100963.00;5066198;28;20217;-78
2021/07/03 00:12:52;;;;;;;25.10;18.80;;;;;;;14.80;77.47;100960.09;5064583;28;20556;-78
2021/07/03 00:15:21;;;;;;;22.43;18.00;;;;;;;14.81;77.56;100961.78;5064666;28;20219;-78
2021/07/03 00:17:48;;;;;;;20.70;18.10;;;;;;;14.82;77.45;100963.50;5067316;28;20229;-78
2021/07/03 00:20:15;;;;;;;23.13;18.13;;;;;;;14.83;77.50;100965.22;5068404;28;20225;-78
2021/07/03 00:22:41;;;;;;;22.07;17.23;;;;;;;14.83;77.50;100965.22;5067917;28;20197;-79
2021/07/03 00:25:08;;;;;;;23.83;18.80;;;;;;;14.83;77.29;100962.53;5066455;28;20585;-79
2021/07/03 00:27:35;;;;;;;20.40;17.73;;;;;;;14.82;77.17;100959.00;5062045;28;20208;-78
2021/07/03 00:30:05;;;;;;;23.03;17.70;;;;;;;14.81;77.36;100959.09;5070097;28;20228;-78
2021/07/03 00:32:31;;;;;;;22.60;18.63;;;;;;;14.81;77.71;100959.09;5070447;28;20197;-78
2021/07/03 00:34:58;;;;;;;23.37;19.20;;;;;;;14.81;77.27;100959.97;5072815;28;20205;-78
2021/07/03 00:37:24;;;;;;;23.13;18.50;;;;;;;14.81;77.30;100953.75;5064467;28;20204;-79
2021/07/03 00:39:51;;;;;;;21.07;16.23;;;;;;;14.79;77.39;100953.88;5070644;28;20225;-79
2021/07/03 00:42:18;;;;;;;20.07;16.83;;;;;;;14.71;76.75;100958.94;5072824;28;20210;-79
2021/07/03 00:44:45;;;;;;;20.03;16.27;;;;;;;14.63;76.82;100955.13;5067730;28;20237;-79
2021/07/03 00:47:13;;;;;;;21.23;16.50;;;;;;;14.52;76.66;100959.47;5068319;28;20662;-79
2021/07/03 00:49:39;;;;;;;23.60;17.27;;;;;;;14.41;76.75;100955.88;5069449;28;20221;-79
2021/07/03 00:52:08;;;;;;;24.57;17.47;;;;;;;14.35;76.72;100958.97;5072720;28;20199;-79
2021/07/03 00:54:36;;;;;;;23.67;17.67;;;;;;;14.31;77.44;100957.53;5064268;28;20672;-79
2021/07/03 00:57:04;;;;;;;20.47;17.13;;;;;;;14.30;77.34;100959.34;5068935;28;20201;-79
2021/07/03 00:59:33;;;;;;;24.17;17.87;;;;;;;14.28;77.65;100958.59;5064572;28;20207;-78
2021/07/03 01:01:59;;;;;;;22.27;16.83;;;;;;;14.28;77.70;100961.28;5081187;28;20711;-78
2021/07/03 01:04:27;;;;;;;25.60;18.33;;;;;;;14.27;77.50;100951.53;5065293;28;20200;-77
2021/07/03 01:06:54;;;;;;;19.67;17.40;;;;;;;14.24;77.39;100955.28;5058867;28;20203;-78
2021/07/03 01:09:20;;;;;;;24.67;18.03;;;;;;;14.19;77.71;100964.63;5068175;28;20220;-77
2021/07/03 01:11:47;;;;;;;23.80;17.83;;;;;;;14.12;77.90;100960.69;5069926;28;20695;-77
2021/07/03 01:14:14;;;;;;;25.03;17.53;;;;;;;14.05;78.00;100959.41;5072636;28;20223;-79
2021/07/03 01:16:42;;;;;;;21.57;17.03;;;;;;;13.98;77.64;100961.69;5064550;28;20212;-77
2021/07/03 01:19:09;;;;;;;21.50;17.60;;;;;;;13.94;78.39;100954.00;5069795;28;20208;-78
2021/07/03 01:21:38;;;;;;;21.37;16.87;;;;;;;13.92;78.33;100948.75;5065587;28;20232;-78
2021/07/03 01:24:06;;;;;;;21.77;18.30;;;;;;;13.93;78.82;100950.47;5071788;28;20204;-78
2021/07/03 01:26:41;;;;;;;22.60;17.10;;;;;;;13.92;78.72;100951.44;5070454;28;20201;-78
2021/07/03 01:29:07;;;;;;;20.43;17.33;;;;;;;13.92;78.70;100948.75;5066541;28;20726;-78
2021/07/03 01:31:34;;;;;;;23.20;17.43;;;;;;;13.91;78.47;100949.72;5073073;28;20605;-78
2021/07/03 01:34:00;;;;;;;24.93;18.17;;;;;;;13.90;78.89;100948.00;5072293;28;20201;-78
2021/07/03 01:36:27;;;;;;;20.00;17.90;;;;;;;13.89;78.70;100944.47;5070826;28;20262;-79
2021/07/03 01:38:53;;;;;;;21.40;16.63;;;;;;;13.90;78.68;100945.31;5064093;28;20201;-79
2021/07/03 01:41:21;;;;;;;20.40;17.60;;;;;;;13.90;79.07;100942.66;5068000;28;20220;-79
2021/07/03 01:43:48;;;;;;;19.57;16.47;;;;;;;13.88;78.80;100945.44;5067385;28;20212;-79
2021/07/03 01:46:14;;;;;;;19.17;16.30;;;;;;;13.87;78.53;100948.22;5071219;28;20216;-79
2021/07/03 01:48:41;;;;;;;21.23;16.77;;;;;;;13.85;79.15;100942.97;5071733;28;20717;-79
2021/07/03 01:51:07;;;;;;;19.37;16.40;;;;;;;13.85;78.55;100940.28;5065023;28;20224;-78
2021/07/03 01:53:34;;;;;;;22.17;16.63;;;;;;;13.83;78.86;100930.66;5071931;28;20207;-78
2021/07/03 01:56:00;;;;;;;22.80;16.20;;;;;;;13.80;78.55;100925.53;5066919;28;20555;-79
2021/07/03 01:58:29;;;;;;;17.43;15.63;;;;;;;13.72;78.63;100927.91;5070802;28;20209;-78
2021/07/03 02:00:58;;;;;;;22.23;16.17;;;;;;;13.65;78.34;100927.50;5061705;28;20232;-78
2021/07/03 02:03:25;;;;;;;19.77;15.70;;;;;;;13.57;78.50;100924.53;5066978;28;20254;-78
2021/07/03 02:05:53;;;;;;;20.97;16.57;;;;;;;13.48;78.76;100919.81;5072262;28;20551;-79
2021/07/03 02:08:20;;;;;;;20.30;16.23;;;;;;;13.43;79.04;100927.31;5066932;28;20211;-79
2021/07/03 02:10:47;;;;;;;21.37;17.37;;;;;;;13.41;79.38;100934.59;5065350;28;20221;-78
2021/07/03 02:13:13;;;;;;;22.20;16.77;;;;;;;13.42;79.85;100936.31;5059120;28;20211;-78
2021/07/03 02:15:42;;;;;;;22.93;17.37;;;;;;;13.43;80.61;100930.88;5068802;28;20209;-77
2021/07/03 02:18:08;;;;;;;23.30;17.70;;;;;;;13.45;80.74;100926.22;5072766;28;20208;-78
2021/07/03 02:20:35;;;;;;;18.70;16.43;;;;;;;13.49;80.65;100930.41;5058951;28;20223;-78
2021/07/03 02:23:03;;;;;;;20.00;16.63;;;;;;;13.49;80.72;100926.88;5070309;28;20197;-79
2021/07/03 02:25:32;;;;;;;25.23;17.40;;;;;;;13.44;80.64;100929.88;5067747;28;20201;-79
2021/07/03 02:27:59;;;;;;;21.90;17.53;;;;;;;13.38;80.47;100924.13;5071125;28;20211;-79
2021/07/03 02:30:26;;;;;;;21.93;16.80;;;;;;;13.34;80.72;100928.81;5063692;28;20221;-79
2021/07/03 02:32:54;;;;;;;20.60;15.50;;;;;;;13.28;80.69;100929.25;5067531;28;20197;-79
2021/07/03 02:35:21;;;;;;;18.67;14.93;;;;;;;13.24;80.50;100926.91;5069416;28;20201;-77
2021/07/03 02:37:48;;;;;;;24.57;17.10;;;;;;;13.23;81.01;100930.53;5064796;28;20205;-77
2021/07/03 02:40:18;;;;;;;22.60;16.97;;;;;;;13.22;80.82;100937.72;5070747;28;20718;-78
2021/07/03 02:42:45;;;;;;;21.73;17.80;;;;;;;13.19;80.95;100929.91;5074088;28;20201;-78
2021/07/03 02:45:14;;;;;;;21.20;17.03;;;;;;;13.18;81.36;100928.19;5071483;28;20571;-78
2021/07/03 02:47:41;;;;;;;25.13;17.97;;;;;;;13.18;81.60;100934.38;5073668;28;20300;-78
2021/07/03 02:50:12;;;;;;;25.57;18.07;;;;;;;13.16;81.01;100930.97;5072856;28;20228;-78
2021/07/03 02:52:39;;;;;;;24.33;16.70;;;;;;;13.09;81.00;100926.97;5065739;28;20294;-78
2021/07/03 02:55:07;;;;;;;21.70;16.50;;;;;;;13.03;81.10;100934.56;5073606;28;20683;-78
2021/07/03 02:57:34;;;;;;;25.33;16.97;;;;;;;12.97;81.20;100934.97;5074933;28;20201;-79
2021/07/03 03:00:01;;;;;;;20.40;14.93;;;;;;;12.93;80.99;100933.47;5068477;28;20227;-79
2021/07/03 03:02:27;;;;;;;22.57;15.10;;;;;;;12.87;80.74;100940.13;5068818;28;20215;-80
2021/07/03 03:04:54;;;;;;;23.70;14.50;;;;;;;12.83;80.76;100935.94;5062754;28;20224;-78
2021/07/03 03:07:22;;;;;;;20.57;14.40;;;;;;;12.80;80.70;100938.81;5071522;28;20678;-79
2021/07/03 03:09:48;;;;;;;22.10;14.30;;;;;;;12.77;80.81;100942.53;5072766;28;20225;-79
2021/07/03 03:12:15;;;;;;;22.80;16.27;;;;;;;12.76;80.77;100943.50;5074895;28;20211;-80
2021/07/03 03:14:41;;;;;;;21.67;15.87;;;;;;;12.76;80.58;100940.81;5073308;28;20941;-80
2021/07/03 03:17:08;;;;;;;16.50;14.77;;;;;;;12.73;80.67;100953.53;5064776;28;20209;-80
2021/07/03 03:19:34;;;;;;;23.30;16.93;;;;;;;12.73;80.79;100953.53;5064078;28;20205;-80
2021/07/03 03:22:01;;;;;;;18.63;15.87;;;;;;;12.70;80.63;100953.75;5074443;28;20640;-79
2021/07/03 03:24:29;;;;;;;23.20;15.17;;;;;;;12.68;80.89;100947.66;5066637;28;20236;-78
2021/07/03 03:26:55;;;;;;;25.00;14.67;;;;;;;12.67;81.03;100957.50;5068327;28;20294;-78
2021/07/03 03:29:22;;;;;;;19.70;14.07;;;;;;;12.63;80.49;100957.78;5068890;28;20640;-78
2021/07/03 03:31:48;;;;;;;21.07;14.03;;;;;;;12.56;80.11;100953.81;5072868;28;20227;-78
2021/07/03 03:34:15;;;;;;;22.00;14.80;;;;;;;12.49;80.11;100956.91;5070024;28;20202;-79
2021/07/03 03:36:41;;;;;;;19.60;13.90;;;;;;;12.41;80.30;100964.56;5071672;28;20205;-79
2021/07/03 03:39:08;;;;;;;23.77;15.77;;;;;;;12.38;80.45;100963.91;5073781;28;20210;-79
2021/07/03 03:41:36;;;;;;;17.80;14.07;;;;;;;12.35;80.40;100956.97;5069844;28;20225;-79
2021/07/03 03:44:02;;;;;;;23.10;14.10;;;;;;;12.36;80.65;100958.66;5083500;28;20223;-78
2021/07/03 03:46:29;;;;;;;22.13;15.60;;;;;;;12.38;80.85;100964.75;5073855;28;20211;-78
2021/07/03 03:48:55;;;;;;;19.63;14.37;;;;;;;12.39;80.86;100961.13;5068596;28;20205;-77
2021/07/03 03:51:22;;;;;;;20.57;14.97;;;;;;;12.40;80.96;100957.50;5065473;28;20220;-78
2021/07/03 03:53:48;;;;;;;21.83;14.17;;;;;;;12.40;80.75;100957.50;5071658;28;20201;-78
2021/07/03 03:56:15;;;;;;;25.57;15.03;;;;;;;12.39;80.67;100953.13;5074315;28;20713;-79
2021/07/03 03:58:43;;;;;;;22.90;15.00;;;;;;;12.37;80.76;100962.19;5072867;28;20745;-79
2021/07/03 04:01:09;;;;;;;26.93;15.60;;;;;;;12.33;80.58;100958.88;5068073;28;20223;-79
2021/07/03 04:03:36;;;;;;;23.10;14.77;;;;;;;12.32;80.91;100959.84;5062661;28;20821;-80
2021/07/03 04:06:02;;;;;;;20.90;15.10;;;;;;;12.33;81.20;100961.56;5073025;28;20205;-78
2021/07/03 04:08:30;;;;;;;22.27;16.00;;;;;;;12.38;81.38;100964.75;5064478;28;20213;-78
2021/07/03 04:10:56;;;;;;;21.30;16.47;;;;;;;12.42;81.48;100955.59;5067456;28;20228;-78
2021/07/03 04:13:23;;;;;;;25.23;15.60;;;;;;;12.47;81.61;100953.47;5070581;28;20209;-78
2021/07/03 04:15:51;;;;;;;25.00;15.50;;;;;;;12.52;81.71;100955.84;5084142;28;20214;-78
2021/07/03 04:18:17;;;;;;;21.17;14.53;;;;;;;12.52;81.50;100962.06;5061879;28;20201;-77
2021/07/03 04:20:44;;;;;;;24.77;16.10;;;;;;;12.52;81.82;100962.06;5073068;28;20639;-77
2021/07/03 04:23:10;;;;;;;26.73;16.10;;;;;;;12.54;81.78;100966.44;5072996;28;20195;-78
2021/07/03 04:25:37;;;;;;;25.37;15.87;;;;;;;12.57;82.17;100964.41;5071616;28;20211;-78
2021/07/03 04:28:04;;;;;;;23.63;16.27;;;;;;;12.63;82.31;100965.81;5073647;28;20201;-78
2021/07/03 04:30:30;;;;;;;22.20;16.93;;;;;;;12.67;82.38;100959.31;5070132;28;20229;-78
2021/07/03 04:32:58;;;;;;;21.03;16.40;;;;;;;12.73;82.47;100958.88;5074461;28;20205;-78
2021/07/03 04:35:25;;;;;;;34.83;17.80;;;;;;;12.79;82.79;100961.16;5073417;28;20279;-80
2021/07/03 04:37:51;;;;;;;23.10;17.47;;;;;;;12.84;82.93;100961.69;5067736;28;20201;-80
2021/07/03 04:40:18;;;;;;;23.80;16.70;;;;;;;12.90;82.84;100957.78;5062383;28;20881;-79
2021/07/03 04:42:44;;;;;;;25.33;17.07;;;;;;;12.94;82.93;100962.78;5069534;28;20273;-80
2021/07/03 04:45:11;;;;;;;24.93;16.87;;;;;;;12.99;82.82;100963.31;5067231;28;20603;-79
2021/07/03 04:47:38;;;;;;;24.07;17.67;;;;;;;13.05;83.23;100964.72;5070417;28;20210;-80
2021/07/03 04:50:08;;;;;;;26.13;17.70;;;;;;;13.12;83.07;100966.88;5065252;28;20705;-80
2021/07/03 04:52:36;;;;;;;26.00;18.07;;;;;;;13.18;83.16;100966.47;5064467;28;20284;-79
2021/07/03 04:55:03;;;;;;;27.53;17.67;;;;;;;13.25;83.35;100963.41;5059526;28;20215;-79
2021/07/03 04:57:29;;;;;;;24.17;17.90;;;;;;;13.31;83.49;100969.16;5064827;28;20216;-77
2021/07/03 04:59:56;;;;;;;26.07;17.90;;;;;;;13.36;83.51;100963.50;5069651;28;20414;-79
2021/07/03 05:02:22;;;;;;;31.37;18.00;;;;;;;13.41;83.67;100964.88;5066109;28;20562;-78
2021/07/03 05:04:49;;;;;;;25.77;17.60;;;;;;;13.44;83.78;100961.97;5062150;28;20197;-77
2021/07/03 05:07:17;;;;;;;23.97;17.60;;;;;;;13.49;83.92;100959.84;5062166;28;20201;-77
2021/07/03 05:09:43;;;;;;;26.27;17.43;;;;;;;13.55;84.29;100966.59;5067631;28;20220;-78
2021/07/03 05:12:10;;;;;;;25.50;17.57;;;;;;;13.61;84.06;100962.63;5067256;28;20659;-78
2021/07/03 05:14:37;;;;;;;26.77;18.03;;;;;;;13.69;84.58;100966.47;5068359;28;21055;-79
2021/07/03 05:17:04;;;;;;;25.40;17.97;;;;;;;13.76;84.98;100959.72;5068632;28;20228;-79
2021/07/03 05:19:30;;;;;;;26.90;18.13;;;;;;;13.84;84.54;100964.50;5060875;28;20202;-78
2021/07/03 05:21:57;;;;;;;24.87;18.27;;;;;;;13.93;85.13;100963.84;5065108;28;20628;-78
2021/07/03 05:24:25;;;;;;;25.87;19.37;;;;;;;14.02;84.84;100963.16;5061910;28;20201;-78
2021/07/03 05:26:51;;;;;;;26.50;18.07;;;;;;;14.14;85.49;100964.13;5070780;28;20200;-78
2021/07/03 05:29:18;;;;;;;25.67;18.87;;;;;;;14.24;85.21;100951.75;5060909;28;20213;-78
2021/07/03 05:31:45;;;;;;;28.47;19.40;;;;;;;14.35;85.41;100953.63;5070218;28;20231;-78
2021/07/03 05:34:11;;;;;;;27.07;19.03;;;;;;;14.46;85.50;100962.63;5069765;28;20197;-79
2021/07/03 05:36:38;;;;;;;25.30;17.93;;;;;;;14.57;85.29;100965.34;5064827;28;20214;-79
2021/07/03 05:39:05;;;;;;;26.93;18.97;;;;;;;14.69;85.51;100957.38;5070884;28;20640;-78
2021/07/03 05:41:35;;;;;;;25.20;17.93;;;;;;;14.81;85.21;100956.44;5068246;28;20227;-77
2021/07/03 05:44:01;;;;;;;25.10;19.00;;;;;;;14.94;85.39;100951.81;5062614;28;20201;-78
2021/07/03 05:46:28;;;;;;;26.17;17.77;;;;;;;15.10;85.25;100946.13;5066945;28;20394;-78
2021/07/03 05:48:55;;;;;;;26.10;18.47;;;;;;;15.26;85.50;100946.66;5068902;28;20651;-78
2021/07/03 05:51:24;;;;;;;18.70;16.63;;;;;;;15.42;85.45;100948.97;5066415;28;20270;-77
2021/07/03 05:53:51;;;;;;;23.50;17.23;;;;;;;15.59;85.33;100949.38;5067656;28;20274;-79
2021/07/03 05:56:17;;;;;;;24.73;16.57;;;;;;;15.79;85.13;100941.56;5069296;28;20200;-79
2021/07/03 05:58:45;;;;;;;21.83;16.77;;;;;;;15.98;84.37;100941.78;5067092;28;20289;-79
2021/07/03 06:01:12;;;;;;;19.17;15.10;;;;;;;16.16;84.03;100939.44;5055927;28;20598;-78
2021/07/03 06:03:38;;;;;;;18.37;15.33;;;;;;;16.36;83.79;100935.09;5066776;28;20581;-79
2021/07/03 06:06:05;;;;;;;20.93;15.53;;;;;;;16.53;82.93;100931.88;5072118;28;20203;-78
2021/07/03 06:08:31;;;;;;;17.90;14.07;;;;;;;16.70;82.06;100930.47;5074687;28;20583;-78
2021/07/03 06:10:58;;;;;;;16.70;13.17;;;;;;;16.83;80.84;100933.84;5061246;28;20226;-78
2021/07/03 06:13:24;;;;;;;16.83;13.57;;;;;;;16.97;79.76;100929.00;5059003;28;20207;-78
2021/07/03 06:15:52;;;;;;;18.57;13.60;;;;;;;17.14;78.99;100924.84;5060474;28;20209;-77
2021/07/03 06:18:19;;;;;;;16.07;13.17;;;;;;;17.33;78.25;100926.81;5068895;28;20312;-78
2021/07/03 06:20:45;;;;;;;15.57;12.93;;;;;;;17.54;77.62;100929.47;5070075;28;20223;-79
2021/07/03 06:23:12;;;;;;;16.63;13.43;;;;;;;17.78;76.73;100931.84;5071245;28;20202;-78
2021/07/03 06:25:38;;;;;;;15.27;13.37;;;;;;;18.00;76.11;100927.09;5064111;28;20207;-78
2021/07/03 06:28:05;;;;;;;13.90;12.40;;;;;;;18.22;75.19;100927.84;5056943;28;20208;-78
2021/07/03 06:30:32;;;;;;;13.27;11.77;;;;;;;18.41;73.96;100927.03;5064739;28;20246;-79
2021/07/03 06:33:00;;;;;;;15.00;12.30;;;;;;;18.54;72.91;100922.19;5070723;28;20212;-79
2021/07/03 06:35:26;;;;;;;16.20;12.20;;;;;;;18.70;72.36;100919.81;5069633;28;20209;-79
2021/07/03 06:37:53;;;;;;;17.57;12.03;;;;;;;18.84;71.23;100910.41;5077921;28;20225;-78
2021/07/03 06:40:19;;;;;;;13.87;11.27;;;;;;;18.99;70.90;100911.66;5072112;28;20224;-79
2021/07/03 06:42:46;;;;;;;13.00;11.70;;;;;;;19.14;70.13;100915.63;5067844;28;20217;-78
2021/07/03 06:45:12;;;;;;;13.07;11.43;;;;;;;19.30;69.13;100912.31;5070180;28;20214;-78
2021/07/03 06:47:39;;;;;;;12.80;11.47;;;;;;;19.42;68.37;100922.78;5068494;28;20207;-77
2021/07/03 06:50:08;;;;;;;14.00;11.10;;;;;;;19.56;67.41;100920.63;5075103;28;20593;-79
2021/07/03 06:52:36;;;;;;;14.73;12.50;;;;;;;19.66;66.64;100913.34;5072432;28;20202;-79
2021/07/03 06:55:03;;;;;;;15.17;12.30;;;;;;;19.75;65.98;100918.69;5067190;28;20216;-79
2021/07/03 06:57:29;;;;;;;12.77;11.37;;;;;;;19.85;65.14;100913.25;5067061;28;20222;-79
2021/07/03 06:59:56;;;;;;;13.40;11.90;;;;;;;19.99;64.98;100920.00;5072324;28;20236;-78
2021/07/03 07:02:22;;;;;;;13.50;12.20;;;;;;;20.10;64.17;100909.81;5065531;28;20656;-79
2021/07/03 07:04:49;;;;;;;14.13;11.93;;;;;;;20.30;64.33;100912.41;5073299;28;20209;-79
2021/07/03 07:07:17;;;;;;;12.83;11.53;;;;;;;20.48;63.78;100907.88;5075476;28;20210;-78
2021/07/03 07:09:43;;;;;;;15.33;12.17;;;;;;;20.66;62.67;100911.41;5072504;28;20589;-78
2021/07/03 07:12:10;;;;;;;14.90;11.80;;;;;;;20.79;61.80;100911.00;5067019;28;20214;-79
2021/07/03 07:14:37;;;;;;;15.23;13.63;;;;;;;20.90;61.24;100916.19;5070714;28;20211;-80
2021/07/03 07:17:04;;;;;;;14.05;12.65;;;;;;;21.01;60.16;100905.09;5068488;28;20262;-79
2021/07/03 07:19:31;;;;;;;14.47;12.70;;;;;;;21.07;59.75;100914.47;5070934;28;20211;-79
2021/07/03 07:21:57;;;;;;;15.27;12.47;;;;;;;21.13;59.42;100905.72;5079370;28;20227;-79
2021/07/03 07:24:25;;;;;;;14.07;12.60;;;;;;;21.21;58.99;100900.38;5073794;28;20210;-78
2021/07/03 07:26:52;;;;;;;13.10;11.80;;;;;;;21.29;58.98;100908.56;5063654;28;20202;-80
2021/07/03 07:29:18;;;;;;;16.70;13.30;;;;;;;21.42;59.05;100906.25;5069902;28;20200;-78
2021/07/03 07:31:47;;;;;;;14.60;13.10;;;;;;;21.55;58.54;100915.78;5068984;28;20251;-79
2021/07/03 07:34:13;;;;;;;15.65;12.43;;;;;;;21.72;58.21;100914.84;5069071;28;20201;-80
2021/07/03 07:36:40;;;;;;;15.02;12.50;;;;;;;21.85;56.94;100914.44;5072823;28;20215;-79
2021/07/03 07:39:06;;;;;;;14.15;12.40;;;;;;;21.96;57.03;100912.25;5075479;28;20201;-79
2021/07/03 07:41:34;;;;;;;14.27;12.40;;;;;;;22.13;56.54;100905.03;5072281;28;20637;-79
2021/07/03 07:44:01;;;;;;;18.83;11.50;;;;;;;22.28;56.61;100906.09;5070869;28;20216;-78
2021/07/03 07:46:27;;;;;;;16.48;13.07;;;;;;;22.36;55.26;100905.28;5063684;28;20292;-78
2021/07/03 07:48:56;;;;;;;12.98;11.63;;;;;;;22.43;55.85;100909.84;5071366;28;20205;-79
2021/07/03 07:51:22;;;;;;;13.27;11.85;;;;;;;22.52;55.41;100908.00;5067079;28;20278;-79
2021/07/03 07:53:49;;;;;;;13.00;11.38;;;;;;;22.62;55.75;100902.41;5068528;28;20650;-79
2021/07/03 07:56:18;;;;;;;13.15;11.77;;;;;;;22.75;55.00;100900.03;5063708;28;20652;-78
2021/07/03 07:58:47;;;;;;;13.35;12.02;;;;;;;22.83;54.12;100905.50;5076849;28;20215;-78
2021/07/03 08:01:14;;;;;;;14.70;12.10;;;;;;;22.91;53.82;100900.06;5062415;28;20249;-78
2021/07/03 08:03:41;;;;;;;15.43;12.23;;;;;;;22.98;53.42;100898.34;5061496;28;20256;-78
2021/07/03 08:06:07;;;;;;;13.35;11.82;;;;;;;23.04;53.02;100894.09;5067640;28;20207;-79
2021/07/03 08:08:34;;;;;;;14.07;11.15;;;;;;;23.15;53.33;100900.00;5062653;28;20651;-79
2021/07/03 08:11:00;;;;;;;13.07;11.77;;;;;;;23.26;53.17;100895.25;5068468;28;20225;-79
2021/07/03 08:13:27;;;;;;;14.50;10.82;;;;;;;23.45;53.09;100898.44;5073361;28;20205;-79
2021/07/03 08:15:55;;;;;;;15.05;11.93;;;;;;;23.62;52.12;100901.97;5075214;28;20296;-77
2021/07/03 08:18:23;;;;;;;12.48;10.55;;;;;;;23.72;51.74;100899.88;5070226;28;20213;-79
2021/07/03 08:20:50;;;;;;;11.82;10.32;;;;;;;23.83;51.43;100901.34;5065711;28;20234;-78
2021/07/03 08:23:17;;;;;;;14.60;12.20;;;;;;;23.96;50.61;100895.38;5068134;28;20203;-79
2021/07/03 08:25:43;;;;;;;12.73;11.43;;;;;;;24.02;50.78;100892.75;5063189;28;20208;-78
2021/07/03 08:28:10;;;;;;;11.38;10.27;;;;;;;24.11;50.51;100885.41;5071568;28;20284;-79
2021/07/03 08:30:37;;;;;;;12.15;10.90;;;;;;;24.20;50.17;100884.31;5063215;28;20230;-78
2021/07/03 08:33:05;;;;;;;11.77;10.13;;;;;;;24.20;50.33;100889.75;5065395;28;20197;-79
2021/07/03 08:35:32;;;;;;;11.27;9.55;;;;;;;24.27;50.00;100884.50;5065166;28;20214;-79
2021/07/03 08:37:58;;;;;;;10.98;9.88;;;;;;;24.35;49.24;100884.44;5070122;28;20659;-79
2021/07/03 08:40:25;;;;;;;10.75;9.75;;;;;;;24.42;49.56;100878.09;5068916;28;20227;-79
2021/07/03 08:42:51;;;;;;;13.90;10.40;;;;;;;24.52;48.84;100878.72;5066494;28;20209;-78
2021/07/03 08:45:18;;;;;;;18.08;9.38;;;;;;;24.51;48.25;100879.72;5068077;28;20200;-78
2021/07/03 08:47:46;;;;;;;7.93;7.07;;;;;;;24.50;47.45;100869.03;5068994;28;20197;-79
2021/07/03 08:50:17;;;;;;;9.52;8.55;;;;;;;24.50;47.49;100871.75;5068705;28;20229;-78
2021/07/03 08:52:44;;;;;;;8.20;7.40;;;;;;;24.57;47.65;100869.97;5062415;28;20201;-78
2021/07/03 08:55:15;;;;;;;8.70;7.90;;;;;;;24.68;47.19;100863.25;5061918;28;20656;-79
2021/07/03 08:57:45;;;;;;;8.18;6.97;;;;;;;24.71;46.77;100866.47;5061824;28;20205;-77
2021/07/03 09:00:13;;;;;;;8.30;7.50;;;;;;;24.83;47.02;100862.25;5065545;28;20236;-79
2021/07/03 09:02:43;;;;;;;7.32;6.55;;;;;;;24.93;46.41;100854.66;5068473;28;20207;-78
2021/07/03 09:05:23;;;;;;;6.15;5.55;;;;;;;25.08;45.86;100862.06;5071541;28;20643;-78
2021/07/03 09:07:50;;;;;;;9.45;7.63;;;;;;;25.15;45.94;100860.25;5066398;28;20207;-78
2021/07/03 09:10:21;;;;;;;8.48;7.47;;;;;;;25.22;45.50;100861.22;5067708;28;20221;-78
2021/07/03 09:12:50;;;;;;;9.02;8.13;;;;;;;25.29;44.87;100859.41;5076535;28;20722;-77
2021/07/03 09:15:19;;;;;;;8.27;7.47;;;;;;;25.30;45.25;100860.25;5075570;28;20205;-78
2021/07/03 09:17:50;;;;;;;9.20;6.78;;;;;;;25.34;45.22;100856.97;5069630;28;20574;-78
2021/07/03 09:20:31;;;;;;;8.40;7.55;;;;;;;25.38;44.46;100852.00;5072511;28;20287;-78
2021/07/03 09:23:08;;;;;;;6.90;6.25;;;;;;;25.37;44.95;100845.72;5062951;28;20201;-79
2021/07/03 09:25:36;;;;;;;7.32;6.32;;;;;;;25.37;44.57;100851.16;5069283;28;20213;-78
2021/07/03 09:28:08;;;;;;;7.32;6.50;;;;;;;25.33;44.95;100847.09;5069668;28;20206;-78
2021/07/03 09:30:35;;;;;;;8.32;6.05;;;;;;;25.37;45.67;100844.84;5071321;28;20220;-78
2021/07/03 09:33:01;;;;;;;6.95;6.10;;;;;;;25.40;45.28;100845.34;5070992;28;20211;-80
2021/07/03 09:35:29;;;;;;;7.53;6.72;;;;;;;25.38;45.21;100846.56;5067584;28;20211;-80
2021/07/03 09:38:04;;;;;;;7.22;6.53;;;;;;;25.44;45.80;100848.53;5062630;28;20201;-80
2021/07/03 09:40:32;;;;;;;7.45;6.75;;;;;;;25.56;45.86;100852.47;5069743;28;20625;-80
2021/07/03 09:43:10;;;;;;;7.88;7.10;;;;;;;25.64;45.57;100840.63;5065595;28;20568;-80
2021/07/03 09:45:38;;;;;;;7.10;6.40;;;;;;;25.69;45.64;100846.34;5063654;28;20675;-79
2021/07/03 09:48:07;;;;;;;7.90;7.03;;;;;;;25.70;44.93;100845.31;5067925;28;20201;-79
2021/07/03 09:50:35;;;;;;;7.45;6.75;;;;;;;25.66;45.01;100847.59;5066017;28;20229;-80
2021/07/03 09:53:02;;;;;;;7.80;7.10;;;;;;;25.55;44.92;100850.78;5069011;28;20209;-79
2021/07/03 09:55:29;;;;;;;8.70;6.10;;;;;;;25.45;45.27;100844.75;5067821;28;20234;-79
2021/07/03 09:57:55;;;;;;;9.80;6.97;;;;;;;25.42;45.95;100843.28;5065805;28;20215;-80
2021/07/03 10:00:22;;;;;;;8.75;7.10;;;;;;;25.38;45.75;100841.94;5066265;28;20225;-80
2021/07/03 10:02:49;;;;;;;6.97;6.38;;;;;;;25.36;46.17;100844.00;5071186;28;20204;-80
2021/07/03 10:05:19;;;;;;;7.03;6.43;;;;;;;25.33;46.28;100838.09;5071125;28;20254;-80
2021/07/03 10:07:53;;;;;;;7.78;6.82;;;;;;;25.34;46.21;100832.44;5071373;28;20212;-81
2021/07/03 10:10:22;;;;;;;7.65;6.95;;;;;;;25.37;45.31;100833.97;5066573;28;20606;-80
2021/07/03 10:12:57;;;;;;;6.72;6.10;;;;;;;25.43;45.25;100830.47;5071366;28;20311;-80
2021/07/03 10:15:27;;;;;;;7.43;6.53;;;;;;;25.51;45.15;100828.47;5073046;28;20215;-79
2021/07/03 10:17:54;;;;;;;6.32;5.70;;;;;;;25.60;45.60;100827.34;5069332;28;20200;-78
2021/07/03 10:20:21;;;;;;;6.60;6.00;;;;;;;25.70;45.25;100835.25;5073695;28;20232;-79
2021/07/03 10:22:56;;;;;;;6.90;6.20;;;;;;;25.76;44.29;100830.94;5071621;28;20207;-80
2021/07/03 10:25:32;;;;;;;6.88;6.18;;;;;;;25.74;44.31;100830.28;5069270;28;20208;-80
2021/07/03 10:28:00;;;;;;;6.43;5.82;;;;;;;25.72;44.49;100826.88;5066528;28;20211;-79
2021/07/03 10:30:28;;;;;;;7.75;6.25;;;;;;;25.65;43.93;100815.03;5070550;28;20239;-79
2021/07/03 10:32:57;;;;;;;7.43;6.00;;;;;;;25.61;44.48;100817.28;5075751;28;20224;-80
2021/07/03 10:35:25;;;;;;;6.20;5.60;;;;;;;25.67;44.77;100818.44;5061519;28;20209;-80
2021/07/03 10:37:52;;;;;;;6.15;5.47;;;;;;;25.76;44.93;100829.06;5068077;28;20196;-79
2021/07/03 10:40:22;;;;;;;6.43;5.68;;;;;;;25.79;44.73;100833.28;5071991;28;20307;-80
2021/07/03 10:42:50;;;;;;;7.28;6.22;;;;;;;25.81;45.56;100825.72;5072799;28;20224;-79
2021/07/03 10:45:18;;;;;;;6.80;6.10;;;;;;;25.78;44.58;100828.88;5068728;28;20208;-80
2021/07/03 10:47:45;;;;;;;7.28;6.53;;;;;;;25.74;44.92;100813.91;5073800;28;20270;-81
2021/07/03 10:50:20;;;;;;;6.47;5.85;;;;;;;25.69;44.79;100805.44;5069049;28;20225;-80
2021/07/03 10:52:48;;;;;;;6.93;6.05;;;;;;;25.63;44.73;100817.09;5073133;28;20716;-79
2021/07/03 10:55:25;;;;;;;6.60;5.97;;;;;;;25.54;45.09;100811.75;5068459;28;20721;-80
2021/07/03 10:57:53;;;;;;;7.78;5.57;;;;;;;25.57;45.25;100808.63;5072830;28;20223;-80
2021/07/03 11:00:23;;;;;;;5.85;5.25;;;;;;;25.71;45.78;100804.22;5068190;28;20221;-80
2021/07/03 11:02:49;;;;;;;8.25;5.85;;;;;;;25.80;44.59;100802.19;5072176;28;20200;-79
2021/07/03 11:05:16;;;;;;;6.03;5.40;;;;;;;25.79;44.49;100801.38;5064059;28;20202;-81
2021/07/03 11:07:45;;;;;;;6.60;5.65;;;;;;;25.80;44.50;100797.59;5069708;28;20680;-81
2021/07/03 11:10:13;;;;;;;5.07;4.57;;;;;;;25.84;44.19;100795.34;5067785;28;20231;-81
2021/07/03 11:12:48;;;;;;;5.00;4.40;;;;;;;25.81;43.85;100787.53;5069830;28;20250;-81